Time;durP1;ratioP1;P1;durP2;ratioP2;P2;SDS_P1;SDS_P2;PMS_P1;PMS_P2;Temp;Humidity;BMP_temperature;BMP_pressure;BME280_temperature;BME280_humidity;BME280_pressure;Samples;Min_cycle;Max_cycle;Signal;HPM_P1;HPM_P2
2023/12/11 00:02:13;;;;;;;37.47;4.30;;;;;;;;;;5027264;28;20291;-92
2023/12/11 00:04:50;;;;;;;39.97;3.70;;;;;;;;;;5028699;28;20029;-90
2023/12/11 00:07:15;;;;;;;48.95;5.10;;;;;;;;;;5032763;28;20607;-89
2023/12/11 00:09:44;;;;;;;48.37;4.93;;;;;;;;;;5033994;28;20017;-90
2023/12/11 00:12:18;;;;;;;40.40;4.72;;;;;;;;;;5027765;28;20091;-89
2023/12/11 00:14:46;;;;;;;39.93;4.77;;;;;;;;;;5022887;28;20026;-89
2023/12/11 00:17:11;;;;;;;43.10;5.15;;;;;;;;;;5043412;28;20026;-90
2023/12/11 00:19:36;;;;;;;55.17;5.43;;;;;;;;;;5032591;28;20018;-89
2023/12/11 00:22:02;;;;;;;46.37;5.07;;;;;;;;;;5034038;28;20025;-89
2023/12/11 00:24:27;;;;;;;49.50;5.20;;;;;;;;;;5036002;28;20021;-89
2023/12/11 00:26:52;;;;;;;38.53;4.80;;;;;;;;;;5037652;28;20590;-89
2023/12/11 00:29:17;;;;;;;47.53;5.80;;;;;;;;;;5051464;28;20005;-89
2023/12/11 00:31:43;;;;;;;48.70;4.87;;;;;;;;;;5017184;28;20036;-90
2023/12/11 00:34:08;;;;;;;43.87;4.37;;;;;;;;;;5032539;28;20021;-89
2023/12/11 00:36:34;;;;;;;47.70;4.55;;;;;;;;;;5031232;28;20021;-90
2023/12/11 00:39:00;;;;;;;34.97;4.13;;;;;;;;;;4997014;28;20404;-89
2023/12/11 00:41:25;;;;;;;49.03;5.50;;;;;;;;;;5017913;28;20072;-90
2023/12/11 00:43:50;;;;;;;47.50;5.57;;;;;;;;;;5030369;28;20033;-89
2023/12/11 00:46:22;;;;;;;41.23;4.00;;;;;;;;;;5023621;28;20470;-89
2023/12/11 00:48:48;;;;;;;40.45;4.88;;;;;;;;;;5016890;28;20048;-90
2023/12/11 00:51:14;;;;;;;50.87;4.50;;;;;;;;;;5017978;28;20064;-89
2023/12/11 00:53:39;;;;;;;47.05;4.72;;;;;;;;;;5032108;28;20377;-90
2023/12/11 00:56:05;;;;;;;44.27;5.00;;;;;;;;;;5011305;28;20033;-90
2023/12/11 00:58:30;;;;;;;41.00;4.17;;;;;;;;;;5024767;28;20474;-89
2023/12/11 01:00:55;;;;;;;60.23;5.40;;;;;;;;;;5013786;28;20021;-89
2023/12/11 01:03:21;;;;;;;47.03;4.60;;;;;;;;;;5015930;28;20299;-89
2023/12/11 01:05:46;;;;;;;49.30;4.57;;;;;;;;;;5033060;28;20040;-90
2023/12/11 01:08:11;;;;;;;46.10;5.43;;;;;;;;;;5021217;28;20044;-90
2023/12/11 01:10:37;;;;;;;41.63;4.33;;;;;;;;;;5021619;28;20029;-89
2023/12/11 01:13:02;;;;;;;43.90;5.07;;;;;;;;;;5031020;28;20097;-89
2023/12/11 01:15:27;;;;;;;50.40;4.83;;;;;;;;;;5035330;28;20044;-90
2023/12/11 01:17:53;;;;;;;50.50;4.25;;;;;;;;;;5030753;28;20033;-90
2023/12/11 01:20:18;;;;;;;47.17;5.00;;;;;;;;;;5026632;28;20049;-89
2023/12/11 01:22:43;;;;;;;44.43;4.23;;;;;;;;;;5023536;28;20030;-91
2023/12/11 01:25:08;;;;;;;57.40;5.50;;;;;;;;;;5002613;28;20025;-90
2023/12/11 01:27:34;;;;;;;47.73;4.00;;;;;;;;;;5002462;28;20386;-91
2023/12/11 01:29:59;;;;;;;62.27;5.77;;;;;;;;;;5013051;28;20022;-89
2023/12/11 01:32:24;;;;;;;38.80;4.68;;;;;;;;;;5024089;28;20385;-91
2023/12/11 01:34:50;;;;;;;45.00;4.80;;;;;;;;;;5024691;28;20029;-91
2023/12/11 01:37:16;;;;;;;44.83;5.07;;;;;;;;;;5019496;28;20021;-91
2023/12/11 01:39:41;;;;;;;36.17;4.90;;;;;;;;;;5015794;28;20014;-92
2023/12/11 01:42:06;;;;;;;43.53;4.50;;;;;;;;;;5051126;28;20008;-91
2023/12/11 01:44:35;;;;;;;49.30;4.73;;;;;;;;;;5032121;28;20017;-92
2023/12/11 01:47:00;;;;;;;44.95;4.75;;;;;;;;;;5028257;28;20033;-91
2023/12/11 01:49:26;;;;;;;37.80;4.83;;;;;;;;;;5015573;28;20595;-91
2023/12/11 01:51:51;;;;;;;46.93;4.83;;;;;;;;;;5011840;28;20021;-91
2023/12/11 01:54:19;;;;;;;42.53;3.97;;;;;;;;;;5012894;28;20022;-92
2023/12/11 01:56:44;;;;;;;38.83;4.20;;;;;;;;;;5029952;28;20097;-91
2023/12/11 01:59:13;;;;;;;42.60;4.00;;;;;;;;;;5028200;28;20689;-92
2023/12/11 02:01:40;;;;;;;33.65;3.42;;;;;;;;;;5010765;28;20026;-92
2023/12/11 02:04:07;;;;;;;41.70;4.22;;;;;;;;;;5018209;28;20026;-91
2023/12/11 02:06:32;;;;;;;41.35;4.28;;;;;;;;;;4994901;28;20382;-91
2023/12/11 02:08:58;;;;;;;41.67;4.27;;;;;;;;;;5030267;28;20020;-91
2023/12/11 02:11:23;;;;;;;44.57;4.30;;;;;;;;;;5028529;28;20024;-92
2023/12/11 02:13:49;;;;;;;39.40;4.13;;;;;;;;;;5023176;28;20096;-93
2023/12/11 02:16:15;;;;;;;31.33;3.40;;;;;;;;;;5012317;28;20481;-92
2023/12/11 02:18:41;;;;;;;38.63;4.15;;;;;;;;;;5029793;28;20072;-91
2023/12/11 02:21:06;;;;;;;56.97;6.10;;;;;;;;;;5030529;28;20029;-91
2023/12/11 02:23:37;;;;;;;39.67;3.63;;;;;;;;;;5026706;28;20049;-91
2023/12/11 02:26:10;;;;;;;36.60;4.03;;;;;;;;;;5011800;28;20029;-91
2023/12/11 02:28:35;;;;;;;36.42;4.10;;;;;;;;;;5028534;28;20112;-92
2023/12/11 02:31:00;;;;;;;37.03;4.20;;;;;;;;;;5015978;28;20097;-92
2023/12/11 02:33:25;;;;;;;24.47;3.30;;;;;;;;;;5026923;28;20030;-92
2023/12/11 02:35:51;;;;;;;32.50;3.60;;;;;;;;;;5031016;28;20021;-92
2023/12/11 02:38:16;;;;;;;40.97;3.93;;;;;;;;;;4998329;28;20091;-92
2023/12/11 02:40:41;;;;;;;34.00;3.80;;;;;;;;;;5011262;28;20374;-92
2023/12/11 02:43:06;;;;;;;41.90;3.58;;;;;;;;;;5011179;28;20032;-91
2023/12/11 02:45:32;;;;;;;32.13;3.93;;;;;;;;;;5030740;28;20501;-91
2023/12/11 02:48:02;;;;;;;41.10;4.03;;;;;;;;;;5011303;28;20052;-91
2023/12/11 02:50:28;;;;;;;35.13;4.43;;;;;;;;;;5011962;28;20024;-91
2023/12/11 02:52:53;;;;;;;38.53;4.23;;;;;;;;;;5008762;28;20405;-92
2023/12/11 02:55:18;;;;;;;35.00;4.37;;;;;;;;;;5030282;28;20049;-91
2023/12/11 02:57:43;;;;;;;28.13;3.20;;;;;;;;;;5028584;28;20288;-91
2023/12/11 03:00:09;;;;;;;40.60;4.40;;;;;;;;;;5030672;28;20029;-92
2023/12/11 03:02:34;;;;;;;25.70;3.07;;;;;;;;;;5029667;28;20017;-92
2023/12/11 03:04:59;;;;;;;33.20;3.57;;;;;;;;;;5029927;28;20477;-92
2023/12/11 03:07:25;;;;;;;25.30;2.87;;;;;;;;;;5034925;28;20029;-92
2023/12/11 03:09:50;;;;;;;25.63;2.70;;;;;;;;;;5034213;28;20712;-91
2023/12/11 03:12:15;;;;;;;30.43;3.30;;;;;;;;;;5022837;28;20182;-92
2023/12/11 03:14:41;;;;;;;35.67;3.57;;;;;;;;;;5030928;28;20318;-91
2023/12/11 03:17:06;;;;;;;21.87;3.30;;;;;;;;;;5027522;28;20041;-92
2023/12/11 03:19:32;;;;;;;30.07;3.37;;;;;;;;;;5029358;28;20385;-91
2023/12/11 03:21:57;;;;;;;26.65;3.90;;;;;;;;;;5023201;28;20018;-92
2023/12/11 03:24:24;;;;;;;45.20;3.53;;;;;;;;;;5013918;28;20437;-92
2023/12/11 03:26:50;;;;;;;31.67;3.60;;;;;;;;;;5015200;28;20026;-92
2023/12/11 03:29:15;;;;;;;34.93;4.20;;;;;;;;;;5026533;28;20032;-91
2023/12/11 03:31:40;;;;;;;31.80;3.63;;;;;;;;;;5027040;28;20013;-92
2023/12/11 03:34:05;;;;;;;36.03;3.60;;;;;;;;;;5052605;28;20014;-92
2023/12/11 03:36:30;;;;;;;25.47;3.23;;;;;;;;;;5035400;28;20014;-92
2023/12/11 03:38:56;;;;;;;41.30;3.63;;;;;;;;;;5022355;28;20022;-90
2023/12/11 03:41:21;;;;;;;33.60;3.83;;;;;;;;;;5052495;28;20022;-92
2023/12/11 03:43:46;;;;;;;25.60;3.30;;;;;;;;;;5041298;28;20033;-91
2023/12/11 03:46:11;;;;;;;32.80;4.47;;;;;;;;;;5027143;28;20038;-92
2023/12/11 03:48:37;;;;;;;28.93;2.97;;;;;;;;;;5039261;28;20024;-92
2023/12/11 03:51:02;;;;;;;36.23;3.43;;;;;;;;;;5025548;28;20061;-91
2023/12/11 03:53:27;;;;;;;30.90;3.85;;;;;;;;;;5031270;28;20029;-90
2023/12/11 03:55:53;;;;;;;35.30;4.67;;;;;;;;;;5031682;28;20602;-91
2023/12/11 03:58:18;;;;;;;25.27;2.77;;;;;;;;;;5015656;28;20022;-91
2023/12/11 04:00:44;;;;;;;31.63;3.20;;;;;;;;;;5013035;28;20023;-90
2023/12/11 04:03:10;;;;;;;27.85;2.85;;;;;;;;;;5007356;28;20021;-92
2023/12/11 04:05:35;;;;;;;26.43;3.13;;;;;;;;;;5032611;28;20033;-92
2023/12/11 04:08:00;;;;;;;21.47;2.90;;;;;;;;;;5033486;28;20061;-91
2023/12/11 04:10:25;;;;;;;28.63;3.27;;;;;;;;;;5027060;28;20064;-91
2023/12/11 04:12:51;;;;;;;30.00;4.20;;;;;;;;;;5013354;28;20025;-91
2023/12/11 04:15:16;;;;;;;30.87;3.43;;;;;;;;;;5028333;28;20362;-91
2023/12/11 04:17:43;;;;;;;31.50;3.27;;;;;;;;;;5031407;28;20132;-91
2023/12/11 04:20:08;;;;;;;27.00;3.22;;;;;;;;;;5032500;28;20032;-91
2023/12/11 04:22:33;;;;;;;39.80;3.40;;;;;;;;;;5023706;28;20416;-91
2023/12/11 04:24:59;;;;;;;34.77;5.23;;;;;;;;;;5013525;28;20381;-91
2023/12/11 04:27:24;;;;;;;29.33;3.33;;;;;;;;;;4995743;28;20068;-90
2023/12/11 04:29:49;;;;;;;37.03;3.47;;;;;;;;;;5015029;28;20064;-89
2023/12/11 04:32:14;;;;;;;36.83;3.40;;;;;;;;;;5031233;28;20038;-90
2023/12/11 04:34:41;;;;;;;32.13;3.50;;;;;;;;;;5032911;28;20268;-91
2023/12/11 04:37:06;;;;;;;37.43;3.67;;;;;;;;;;5032136;28;20056;-91
2023/12/11 04:39:31;;;;;;;33.80;3.60;;;;;;;;;;5013615;28;20756;-90
2023/12/11 04:41:56;;;;;;;35.67;3.93;;;;;;;;;;5026603;28;20085;-90
2023/12/11 04:44:22;;;;;;;28.07;2.77;;;;;;;;;;5042178;28;20032;-91
2023/12/11 04:46:47;;;;;;;39.10;3.93;;;;;;;;;;5049278;28;20052;-90
2023/12/11 04:49:12;;;;;;;28.80;3.37;;;;;;;;;;5031008;28;20109;-90
2023/12/11 04:51:37;;;;;;;45.80;3.33;;;;;;;;;;5048470;28;20025;-90
2023/12/11 04:54:03;;;;;;;35.67;3.43;;;;;;;;;;5051888;28;20032;-90
2023/12/11 04:56:28;;;;;;;33.73;4.37;;;;;;;;;;5052356;28;20028;-91
2023/12/11 04:58:53;;;;;;;37.40;3.93;;;;;;;;;;5043853;28;20016;-91
2023/12/11 05:01:19;;;;;;;33.30;3.40;;;;;;;;;;5029436;28;20284;-91
2023/12/11 05:03:44;;;;;;;41.73;3.47;;;;;;;;;;5025408;28;20006;-90
2023/12/11 05:06:09;;;;;;;45.77;4.10;;;;;;;;;;5010243;28;20029;-90
2023/12/11 05:08:34;;;;;;;36.63;3.70;;;;;;;;;;5026452;28;20014;-90
2023/12/11 05:11:00;;;;;;;43.30;4.10;;;;;;;;;;5028233;28;20064;-91
2023/12/11 05:13:25;;;;;;;29.57;2.77;;;;;;;;;;5027904;28;20264;-91
2023/12/11 05:15:50;;;;;;;27.73;3.13;;;;;;;;;;5024843;28;20044;-90
2023/12/11 05:18:16;;;;;;;30.70;3.97;;;;;;;;;;5039829;28;20017;-88
2023/12/11 05:20:41;;;;;;;38.37;4.30;;;;;;;;;;5031804;28;20044;-90
2023/12/11 05:23:06;;;;;;;39.57;4.00;;;;;;;;;;5039299;28;20033;-89
2023/12/11 05:25:31;;;;;;;34.00;3.53;;;;;;;;;;5034748;28;20018;-89
2023/12/11 05:27:57;;;;;;;38.10;3.40;;;;;;;;;;5017948;28;20061;-90
2023/12/11 05:30:22;;;;;;;30.83;4.03;;;;;;;;;;5011339;28;20050;-90
2023/12/11 05:32:47;;;;;;;44.63;4.17;;;;;;;;;;5020263;28;20050;-90
2023/12/11 05:35:12;;;;;;;38.00;3.67;;;;;;;;;;5029399;28;20029;-90
2023/12/11 05:37:38;;;;;;;48.23;3.97;;;;;;;;;;5016127;28;20280;-91
2023/12/11 05:40:03;;;;;;;43.17;4.20;;;;;;;;;;5040998;28;20063;-90
2023/12/11 05:42:29;;;;;;;30.47;3.73;;;;;;;;;;5013800;28;20061;-89
2023/12/11 05:44:54;;;;;;;36.97;3.50;;;;;;;;;;5029175;28;20033;-89
2023/12/11 05:47:19;;;;;;;35.73;3.17;;;;;;;;;;5030698;28;20121;-90
2023/12/11 05:49:46;;;;;;;32.92;3.22;;;;;;;;;;5028393;28;20031;-90
2023/12/11 05:52:11;;;;;;;34.58;3.30;;;;;;;;;;5016815;28;20621;-90
2023/12/11 05:54:37;;;;;;;33.17;3.67;;;;;;;;;;5030286;28;20018;-90
2023/12/11 05:57:02;;;;;;;32.13;3.87;;;;;;;;;;5029203;28;20040;-90
2023/12/11 05:59:27;;;;;;;40.67;3.43;;;;;;;;;;5002681;28;20018;-90
2023/12/11 06:01:53;;;;;;;37.37;3.30;;;;;;;;;;5028431;28;20021;-91
2023/12/11 06:04:18;;;;;;;42.83;4.03;;;;;;;;;;5028099;28;20029;-91
2023/12/11 06:06:43;;;;;;;37.43;3.30;;;;;;;;;;5005060;28;20485;-90
2023/12/11 06:09:08;;;;;;;36.37;3.60;;;;;;;;;;5024606;28;20018;-90
2023/12/11 06:11:34;;;;;;;39.93;3.40;;;;;;;;;;5014137;28;20334;-90
2023/12/11 06:13:59;;;;;;;36.67;3.87;;;;;;;;;;5022032;28;20026;-89
2023/12/11 06:16:24;;;;;;;36.87;3.73;;;;;;;;;;5027201;28;20120;-91
2023/12/11 06:18:50;;;;;;;36.42;3.83;;;;;;;;;;5013116;28;20043;-89
2023/12/11 06:21:19;;;;;;;30.57;3.13;;;;;;;;;;5026206;28;20469;-89
2023/12/11 06:23:44;;;;;;;25.93;3.57;;;;;;;;;;5021993;28;20021;-90
2023/12/11 06:26:09;;;;;;;36.83;3.93;;;;;;;;;;5011282;28;20038;-90
2023/12/11 06:28:34;;;;;;;34.53;3.20;;;;;;;;;;4994053;28;20265;-90
2023/12/11 06:30:59;;;;;;;33.50;4.47;;;;;;;;;;5018035;28;20473;-88
2023/12/11 06:33:25;;;;;;;40.13;4.53;;;;;;;;;;5012363;28;20034;-88
2023/12/11 06:35:50;;;;;;;37.57;3.83;;;;;;;;;;5019198;28;20025;-90
2023/12/11 06:38:15;;;;;;;36.47;3.80;;;;;;;;;;5026343;28;20040;-90
2023/12/11 06:40:40;;;;;;;37.47;4.50;;;;;;;;;;5035859;28;20096;-88
2023/12/11 06:43:06;;;;;;;37.30;4.17;;;;;;;;;;5042092;28;20051;-89
2023/12/11 06:45:31;;;;;;;31.67;3.83;;;;;;;;;;5045003;28;20021;-89
2023/12/11 06:47:56;;;;;;;39.87;4.20;;;;;;;;;;5035449;28;20268;-90
2023/12/11 06:50:21;;;;;;;32.77;3.73;;;;;;;;;;5033918;28;20060;-90
2023/12/11 06:52:47;;;;;;;35.97;4.30;;;;;;;;;;5027800;28;20033;-90
2023/12/11 06:55:12;;;;;;;35.90;3.47;;;;;;;;;;5026719;28;20028;-90
2023/12/11 06:57:37;;;;;;;37.50;3.87;;;;;;;;;;5033301;28;20030;-90
2023/12/11 07:00:05;;;;;;;29.17;3.50;;;;;;;;;;5032345;28;20083;-90
2023/12/11 07:02:30;;;;;;;33.67;2.93;;;;;;;;;;5024349;28;20295;-90
2023/12/11 07:04:56;;;;;;;31.37;3.57;;;;;;;;;;5013392;28;20469;-90
2023/12/11 07:07:22;;;;;;;36.75;4.05;;;;;;;;;;5014506;28;20516;-91
2023/12/11 07:09:47;;;;;;;36.57;3.60;;;;;;;;;;5027650;28;20017;-89
2023/12/11 07:12:13;;;;;;;35.78;3.25;;;;;;;;;;5028669;28;20017;-89
2023/12/11 07:14:38;;;;;;;29.33;3.30;;;;;;;;;;5019199;28;20026;-90
2023/12/11 07:17:05;;;;;;;27.57;2.77;;;;;;;;;;5030346;28;20033;-90
2023/12/11 07:19:30;;;;;;;30.63;2.90;;;;;;;;;;5031309;28;20408;-87
2023/12/11 07:21:55;;;;;;;33.03;3.20;;;;;;;;;;5027188;28;20030;-88
2023/12/11 07:24:20;;;;;;;25.73;3.20;;;;;;;;;;5031871;28;20037;-87
2023/12/11 07:26:46;;;;;;;29.05;2.80;;;;;;;;;;5022424;28;20048;-87
2023/12/11 07:29:11;;;;;;;23.47;2.67;;;;;;;;;;5013225;28;20129;-88
2023/12/11 07:31:36;;;;;;;30.50;3.03;;;;;;;;;;5022670;28;20029;-88
2023/12/11 07:34:03;;;;;;;34.67;3.80;;;;;;;;;;5025087;28;20009;-88
2023/12/11 07:36:28;;;;;;;34.67;3.25;;;;;;;;;;5032295;28;20483;-89
2023/12/11 07:38:54;;;;;;;27.03;2.63;;;;;;;;;;5041024;28;20017;-88
2023/12/11 07:41:20;;;;;;;30.23;3.13;;;;;;;;;;5028510;28;20458;-87
2023/12/11 07:43:46;;;;;;;28.58;3.15;;;;;;;;;;5019431;28;20033;-88
2023/12/11 07:46:17;;;;;;;27.47;3.10;;;;;;;;;;5028445;28;20390;-87
2023/12/11 07:48:43;;;;;;;29.08;3.17;;;;;;;;;;5030427;28;20017;-87
2023/12/11 07:51:16;;;;;;;36.43;3.20;;;;;;;;;;5027593;28;20394;-89
2023/12/11 07:53:41;;;;;;;34.10;2.85;;;;;;;;;;5026093;28;20029;-87
2023/12/11 07:56:06;;;;;;;26.53;3.40;;;;;;;;;;5012489;28;20025;-86
2023/12/11 07:58:33;;;;;;;26.97;3.47;;;;;;;;;;5022876;28;20016;-88
2023/12/11 08:00:58;;;;;;;16.52;2.35;;;;;;;;;;5028789;28;20029;-88
2023/12/11 08:03:23;;;;;;;21.50;2.77;;;;;;;;;;5032768;28;20032;-88
2023/12/11 08:05:49;;;;;;;26.23;2.97;;;;;;;;;;5031841;28;20095;-88
2023/12/11 08:08:14;;;;;;;34.80;3.15;;;;;;;;;;5014463;28;20513;-89
2023/12/11 08:10:40;;;;;;;25.23;2.60;;;;;;;;;;5031765;28;20017;-87
2023/12/11 08:13:05;;;;;;;22.93;2.03;;;;;;;;;;5030064;28;20021;-89
2023/12/11 08:15:30;;;;;;;28.37;2.60;;;;;;;;;;5012616;28;20104;-88
2023/12/11 08:17:55;;;;;;;24.17;3.80;;;;;;;;;;5014917;28;20013;-88
2023/12/11 08:20:21;;;;;;;32.23;2.40;;;;;;;;;;5019596;28;20026;-87
2023/12/11 08:22:46;;;;;;;22.27;3.57;;;;;;;;;;5029268;28;20022;-87
2023/12/11 08:25:12;;;;;;;21.13;2.50;;;;;;;;;;5028140;28;20275;-88
2023/12/11 08:27:37;;;;;;;20.33;3.17;;;;;;;;;;5013391;28;20053;-88
2023/12/11 08:30:03;;;;;;;25.47;3.67;;;;;;;;;;5029939;28;20498;-88
2023/12/11 08:32:28;;;;;;;24.53;3.10;;;;;;;;;;5033291;28;20052;-88
2023/12/11 08:34:53;;;;;;;24.33;4.33;;;;;;;;;;5029857;28;20443;-88
2023/12/11 08:37:18;;;;;;;22.93;3.20;;;;;;;;;;5031903;28;20026;-88
2023/12/11 08:39:44;;;;;;;29.83;3.83;;;;;;;;;;5025320;28;20025;-89
2023/12/11 08:42:09;;;;;;;16.67;2.07;;;;;;;;;;5018766;28;20017;-89
2023/12/11 08:44:35;;;;;;;18.57;2.03;;;;;;;;;;5011489;28;20432;-88
2023/12/11 08:47:01;;;;;;;17.05;2.08;;;;;;;;;;5014173;28;20076;-89
2023/12/11 08:49:26;;;;;;;22.90;2.35;;;;;;;;;;5025279;28;20025;-88
2023/12/11 08:51:51;;;;;;;23.93;2.57;;;;;;;;;;5012132;28;20028;-87
2023/12/11 08:54:16;;;;;;;21.50;2.23;;;;;;;;;;5029204;28;20029;-88
2023/12/11 08:56:42;;;;;;;25.40;2.50;;;;;;;;;;5019074;28;20363;-88
2023/12/11 08:59:07;;;;;;;23.30;2.50;;;;;;;;;;5012019;28;20049;-87
2023/12/11 09:01:34;;;;;;;18.83;2.78;;;;;;;;;;5026242;28;20021;-86
2023/12/11 09:04:00;;;;;;;18.60;2.13;;;;;;;;;;5010498;28;20021;-87
2023/12/11 09:06:25;;;;;;;26.98;2.60;;;;;;;;;;5011581;28;20087;-87
2023/12/11 09:08:50;;;;;;;22.30;2.23;;;;;;;;;;5021473;28;20018;-86
2023/12/11 09:11:15;;;;;;;26.27;3.03;;;;;;;;;;5015308;28;20037;-88
2023/12/11 09:13:41;;;;;;;19.47;2.37;;;;;;;;;;5015604;28;20455;-85
2023/12/11 09:16:06;;;;;;;19.03;1.93;;;;;;;;;;5014538;28;20364;-86
2023/12/11 09:18:31;;;;;;;18.73;2.53;;;;;;;;;;5016297;28;20028;-87
2023/12/11 09:20:56;;;;;;;21.87;2.40;;;;;;;;;;5013907;28;20484;-88
2023/12/11 09:23:22;;;;;;;17.90;2.50;;;;;;;;;;5014751;28;20544;-90
2023/12/11 09:25:47;;;;;;;16.10;2.07;;;;;;;;;;5030060;28;20037;-90
2023/12/11 09:28:12;;;;;;;18.13;2.17;;;;;;;;;;5032813;28;20069;-89
2023/12/11 09:30:38;;;;;;;15.13;1.73;;;;;;;;;;5033801;28;20373;-89
2023/12/11 09:33:03;;;;;;;15.50;1.60;;;;;;;;;;5024540;28;20021;-89
2023/12/11 09:35:28;;;;;;;17.73;2.10;;;;;;;;;;5123712;22;20062;-88
2023/12/11 09:37:54;;;;;;;16.70;2.60;;;;;;;;;;5026736;28;20071;-89
2023/12/11 09:40:19;;;;;;;11.57;1.80;;;;;;;;;;5015827;28;20284;-90
2023/12/11 09:42:45;;;;;;;16.53;2.00;;;;;;;;;;5013984;28;20025;-91
2023/12/11 09:45:11;;;;;;;21.23;2.08;;;;;;;;;;5013325;28;20465;-91
2023/12/11 09:47:39;;;;;;;10.70;1.53;;;;;;;;;;5010622;28;20405;-88
2023/12/11 09:50:05;;;;;;;14.37;1.40;;;;;;;;;;5007876;28;20283;-89
2023/12/11 09:52:30;;;;;;;12.70;1.50;;;;;;;;;;4991961;28;20022;-89
2023/12/11 09:54:56;;;;;;;14.63;2.00;;;;;;;;;;5003219;28;20014;-90
2023/12/11 09:57:22;;;;;;;12.75;2.05;;;;;;;;;;5015064;28;20026;-89
2023/12/11 09:59:50;;;;;;;12.77;1.60;;;;;;;;;;5005568;28;20105;-91
2023/12/11 10:02:16;;;;;;;20.30;2.53;;;;;;;;;;5018594;28;20057;-88
2023/12/11 10:05:00;;;;;;;17.60;2.00;;;;;;;;;;5002030;28;20262;-92
2023/12/11 10:07:25;;;;;;;17.15;2.22;;;;;;;;;;5005876;28;20509;-88
2023/12/11 10:09:51;;;;;;;13.97;2.03;;;;;;;;;;5008790;28;20025;-90
2023/12/11 10:12:16;;;;;;;17.27;1.70;;;;;;;;;;5058257;23;20256;-90
2023/12/11 10:14:41;;;;;;;16.40;2.17;;;;;;;;;;5123328;22;20037;-90
2023/12/11 10:17:16;;;;;;;18.67;2.67;;;;;;;;;;5029876;28;20025;-90
2023/12/11 10:19:41;;;;;;;21.23;2.57;;;;;;;;;;5030581;28;20295;-91
2023/12/11 10:22:07;;;;;;;12.18;1.80;;;;;;;;;;5031353;28;20029;-93
2023/12/11 10:24:32;;;;;;;14.97;1.70;;;;;;;;;;5016320;28;20030;-91
2023/12/11 10:26:58;;;;;;;14.40;2.23;;;;;;;;;;5032017;28;20080;-89
2023/12/11 10:29:26;;;;;;;11.75;1.95;;;;;;;;;;5031091;28;20453;-91
2023/12/11 10:31:52;;;;;;;18.83;2.03;;;;;;;;;;5023819;28;20056;-91
2023/12/11 10:34:18;;;;;;;10.15;1.73;;;;;;;;;;5030452;28;20499;-90
2023/12/11 10:36:50;;;;;;;15.17;2.10;;;;;;;;;;5011733;28;20030;-90
2023/12/11 10:39:15;;;;;;;10.23;1.60;;;;;;;;;;5029240;28;20096;-89
2023/12/11 10:41:44;;;;;;;11.07;2.07;;;;;;;;;;5028835;28;20544;-91
2023/12/11 10:44:18;;;;;;;9.32;1.50;;;;;;;;;;5031153;28;20025;-92
2023/12/11 10:46:43;;;;;;;14.20;1.40;;;;;;;;;;5030209;28;20477;-92
2023/12/11 10:49:10;;;;;;;11.90;1.40;;;;;;;;;;5030657;28;20045;-88
2023/12/11 10:51:36;;;;;;;11.30;1.63;;;;;;;;;;5021427;28;20307;-90
2023/12/11 10:54:01;;;;;;;7.78;1.55;;;;;;;;;;5008446;28;20021;-91
2023/12/11 10:56:27;;;;;;;12.17;1.40;;;;;;;;;;5030270;28;20461;-91
2023/12/11 10:58:52;;;;;;;10.77;1.40;;;;;;;;;;5029079;28;20849;-90
2023/12/11 11:01:17;;;;;;;11.93;1.30;;;;;;;;;;5011544;28;20045;-91
2023/12/11 11:03:43;;;;;;;10.40;1.33;;;;;;;;;;5031327;28;20396;-92
2023/12/11 11:06:08;;;;;;;8.90;1.50;;;;;;;;;;5033003;28;20018;-92
2023/12/11 11:08:52;;;;;;;17.20;2.40;;;;;;;;;;5033574;28;20022;-92
2023/12/11 11:11:23;;;;;;;13.40;1.75;;;;;;;;;;5009552;28;20070;-91
2023/12/11 11:14:08;;;;;;;15.63;2.00;;;;;;;;;;5006261;28;20443;-91
2023/12/11 11:16:52;;;;;;;12.15;1.73;;;;;;;;;;5015984;28;20025;-90
2023/12/11 11:19:17;;;;;;;6.40;1.02;;;;;;;;;;5028789;28;20555;-90
2023/12/11 11:22:04;;;;;;;5.13;0.90;;;;;;;;;;5022941;28;20034;-90
2023/12/11 11:24:29;;;;;;;6.53;1.00;;;;;;;;;;5029500;28;20482;-89
2023/12/11 11:26:56;;;;;;;4.97;0.90;;;;;;;;;;5029218;28;20304;-90
2023/12/11 11:29:41;;;;;;;7.28;0.80;;;;;;;;;;5033827;28;20024;-90
2023/12/11 11:32:07;;;;;;;4.22;0.90;;;;;;;;;;5033327;28;20033;-89
2023/12/11 11:34:38;;;;;;;9.83;1.30;;;;;;;;;;5017296;28;20063;-90
2023/12/11 11:37:04;;;;;;;6.15;0.95;;;;;;;;;;5018091;28;20037;-89
2023/12/11 11:39:52;;;;;;;8.10;1.07;;;;;;;;;;5021569;28;20397;-90
2023/12/11 11:42:18;;;;;;;5.03;0.98;;;;;;;;;;5015498;28;20457;-89
2023/12/11 11:44:44;;;;;;;6.00;1.10;;;;;;;;;;5030323;28;20039;-88
2023/12/11 11:47:09;;;;;;;6.97;1.50;;;;;;;;;;5008636;28;20414;-88
2023/12/11 11:49:35;;;;;;;6.90;1.20;;;;;;;;;;5011598;28;20093;-89
2023/12/11 11:52:07;;;;;;;11.32;1.35;;;;;;;;;;5014724;28;20027;-89
2023/12/11 11:54:35;;;;;;;7.30;1.10;;;;;;;;;;5032088;28;20571;-89
2023/12/11 11:57:01;;;;;;;8.80;1.40;;;;;;;;;;5015127;28;20030;-89
2023/12/11 11:59:26;;;;;;;10.87;1.30;;;;;;;;;;5032371;28;20650;-89
2023/12/11 12:01:52;;;;;;;12.17;1.50;;;;;;;;;;5030057;28;20025;-90
2023/12/11 12:04:24;;;;;;;7.85;1.65;;;;;;;;;;5029883;28;20052;-89
2023/12/11 12:06:49;;;;;;;6.78;1.38;;;;;;;;;;5013383;28;20033;-89
2023/12/11 12:09:18;;;;;;;10.10;1.70;;;;;;;;;;5033061;28;20108;-90
2023/12/11 12:11:43;;;;;;;12.15;1.65;;;;;;;;;;5031251;28;20031;-91
2023/12/11 12:14:12;;;;;;;8.33;1.57;;;;;;;;;;5032856;28;20105;-92
2023/12/11 12:16:37;;;;;;;11.73;2.05;;;;;;;;;;5029399;28;20437;-90
2023/12/11 12:19:03;;;;;;;13.93;1.90;;;;;;;;;;5027510;28;20021;-91
2023/12/11 12:21:28;;;;;;;13.33;1.80;;;;;;;;;;5014723;28;20053;-90
2023/12/11 12:24:08;;;;;;;12.67;2.13;;;;;;;;;;5015586;28;20481;-91
2023/12/11 12:26:34;;;;;;;13.52;2.10;;;;;;;;;;5015009;28;20603;-91
2023/12/11 12:29:01;;;;;;;13.38;2.50;;;;;;;;;;5033161;28;20049;-91
2023/12/11 12:31:26;;;;;;;14.27;2.60;;;;;;;;;;5032154;28;20029;-90
2023/12/11 12:33:51;;;;;;;10.93;2.70;;;;;;;;;;5033241;28;20288;-90
2023/12/11 12:36:18;;;;;;;9.63;2.87;;;;;;;;;;5034620;28;20033;-91
2023/12/11 12:38:43;;;;;;;14.65;3.13;;;;;;;;;;5033705;28;20021;-91
2023/12/11 12:41:13;;;;;;;14.60;2.73;;;;;;;;;;5035159;28;20053;-91
2023/12/11 12:43:39;;;;;;;15.67;3.20;;;;;;;;;;5034752;28;20264;-90
2023/12/11 12:46:04;;;;;;;17.80;2.53;;;;;;;;;;5033340;28;20036;-92
2023/12/11 12:48:29;;;;;;;14.20;3.10;;;;;;;;;;5018650;28;20285;-90
2023/12/11 12:51:09;;;;;;;9.93;2.27;;;;;;;;;;5033871;28;20017;-92
2023/12/11 12:53:44;;;;;;;8.98;1.65;;;;;;;;;;5034057;28;20836;-92
2023/12/11 12:56:18;;;;;;;11.77;1.97;;;;;;;;;;5037352;28;20033;-90
2023/12/11 12:58:48;;;;;;;15.32;1.40;;;;;;;;;;5035848;28;20017;-94
2023/12/11 13:01:13;;;;;;;9.40;1.77;;;;;;;;;;5018025;28;20440;-89
2023/12/11 13:03:38;;;;;;;9.93;1.20;;;;;;;;;;5009666;28;20060;-93
2023/12/11 13:06:05;;;;;;;12.70;1.63;;;;;;;;;;5035630;28;20120;-93
2023/12/11 13:08:43;;;;;;;10.63;1.92;;;;;;;;;;5013195;28;20072;-91
2023/12/11 13:11:08;;;;;;;11.02;1.42;;;;;;;;;;5036389;28;20030;-93
2023/12/11 13:13:33;;;;;;;6.30;1.13;;;;;;;;;;5041086;28;20484;-92
2023/12/11 13:16:00;;;;;;;9.17;2.23;;;;;;;;;;5044656;28;20030;-93
2023/12/11 13:18:25;;;;;;;14.23;1.48;;;;;;;;;;5033568;28;20021;-91
2023/12/11 13:20:50;;;;;;;9.77;1.67;;;;;;;;;;5032065;28;20043;-91
2023/12/11 13:23:16;;;;;;;5.73;1.17;;;;;;;;;;5032214;28;20108;-90
2023/12/11 13:25:42;;;;;;;8.52;1.10;;;;;;;;;;5010401;28;20029;-90
2023/12/11 13:28:07;;;;;;;8.83;1.90;;;;;;;;;;5028964;28;20025;-93
2023/12/11 13:30:33;;;;;;;7.40;1.30;;;;;;;;;;5016775;28;20018;-93
2023/12/11 13:32:58;;;;;;;8.80;1.17;;;;;;;;;;5030276;28;20059;-89
2023/12/11 13:35:24;;;;;;;9.68;1.23;;;;;;;;;;5036634;28;20022;-92
2023/12/11 13:37:49;;;;;;;11.27;1.27;;;;;;;;;;5045053;28;20040;-90
2023/12/11 13:40:16;;;;;;;7.50;1.20;;;;;;;;;;5034824;28;20040;-89
2023/12/11 13:42:41;;;;;;;10.35;1.45;;;;;;;;;;5033770;28;20022;-91
2023/12/11 13:45:06;;;;;;;11.33;1.53;;;;;;;;;;5034560;28;20033;-91
2023/12/11 13:47:32;;;;;;;7.83;1.83;;;;;;;;;;5025700;28;20037;-91
2023/12/11 13:49:57;;;;;;;14.23;1.40;;;;;;;;;;5035332;28;20067;-89
2023/12/11 13:52:23;;;;;;;13.27;1.70;;;;;;;;;;5016956;28;20120;-89
2023/12/11 13:54:48;;;;;;;10.03;1.60;;;;;;;;;;5032290;28;20276;-88
2023/12/11 13:57:14;;;;;;;10.43;1.60;;;;;;;;;;5023732;28;20033;-89
2023/12/11 13:59:40;;;;;;;11.93;1.40;;;;;;;;;;5031757;28;20025;-89
2023/12/11 14:02:05;;;;;;;10.45;1.70;;;;;;;;;;5029827;28;20029;-88
2023/12/11 14:10:17;;;;;;;13.15;1.77;;;;;;;;;;5133494;22;20528;-90
2023/12/11 14:15:48;;;;;;;8.63;1.40;;;;;;;;;;5116005;22;20041;-88
2023/12/11 14:21:17;;;;;;;4.07;1.15;;;;;;;;;;5053173;28;20028;-89
2023/12/11 14:23:42;;;;;;;14.52;2.22;;;;;;;;;;5048676;28;20385;-89
2023/12/11 14:26:07;;;;;;;10.07;1.27;;;;;;;;;;5021962;28;20029;-90
2023/12/11 14:28:33;;;;;;;12.23;1.40;;;;;;;;;;5045382;28;20029;-91
2023/12/11 14:30:58;;;;;;;12.33;1.37;;;;;;;;;;5052145;28;20025;-91
2023/12/11 14:35:58;;;;;;;6.68;1.27;;;;;;;;;;5916298;22;20056;-90
2023/12/11 14:38:24;;;;;;;11.30;1.83;;;;;;;;;;5051194;28;20104;-89
2023/12/11 14:40:49;;;;;;;8.27;1.60;;;;;;;;;;5059963;28;20547;-90